sensor_id;sensor_type;location;lat;lon;timestamp;P1;durP1;ratioP1;P2;durP2;ratioP2
31386;SDS011;69978;50.096;8.448;2024-02-28T00:01:32;13.00;;;4.82;;
31386;SDS011;69978;50.096;8.448;2024-02-28T00:03:57;10.90;;;4.40;;
31386;SDS011;69978;50.096;8.448;2024-02-28T00:06:23;14.38;;;4.88;;
31386;SDS011;69978;50.096;8.448;2024-02-28T00:08:48;11.27;;;4.78;;
31386;SDS011;69978;50.096;8.448;2024-02-28T00:11:15;11.82;;;4.55;;
31386;SDS011;69978;50.096;8.448;2024-02-28T00:13:41;11.35;;;4.75;;
31386;SDS011;69978;50.096;8.448;2024-02-28T00:16:07;11.55;;;4.22;;
31386;SDS011;69978;50.096;8.448;2024-02-28T00:18:32;11.48;;;4.47;;
31386;SDS011;69978;50.096;8.448;2024-02-28T00:20:58;13.55;;;4.88;;
31386;SDS011;69978;50.096;8.448;2024-02-28T00:23:24;13.43;;;5.35;;
31386;SDS011;69978;50.096;8.448;2024-02-28T00:25:49;14.15;;;5.50;;
31386;SDS011;69978;50.096;8.448;2024-02-28T00:28:15;10.23;;;4.70;;
31386;SDS011;69978;50.096;8.448;2024-02-28T00:30:41;13.95;;;4.97;;
31386;SDS011;69978;50.096;8.448;2024-02-28T00:33:06;12.82;;;5.10;;
31386;SDS011;69978;50.096;8.448;2024-02-28T00:35:32;11.63;;;4.95;;
31386;SDS011;69978;50.096;8.448;2024-02-28T00:37:59;12.63;;;5.40;;
31386;SDS011;69978;50.096;8.448;2024-02-28T00:40:24;12.35;;;4.93;;
31386;SDS011;69978;50.096;8.448;2024-02-28T00:42:50;11.18;;;4.75;;
31386;SDS011;69978;50.096;8.448;2024-02-28T00:45:16;12.00;;;4.70;;
31386;SDS011;69978;50.096;8.448;2024-02-28T00:47:42;12.73;;;4.95;;
31386;SDS011;69978;50.096;8.448;2024-02-28T00:50:08;15.40;;;5.15;;
31386;SDS011;69978;50.096;8.448;2024-02-28T00:52:34;14.20;;;5.25;;
31386;SDS011;69978;50.096;8.448;2024-02-28T00:55:00;11.27;;;5.07;;
31386;SDS011;69978;50.096;8.448;2024-02-28T00:57:25;12.35;;;5.43;;
31386;SDS011;69978;50.096;8.448;2024-02-28T00:59:51;14.52;;;5.18;;
31386;SDS011;69978;50.096;8.448;2024-02-28T01:02:17;14.48;;;5.18;;
31386;SDS011;69978;50.096;8.448;2024-02-28T01:04:43;13.77;;;4.95;;
31386;SDS011;69978;50.096;8.448;2024-02-28T01:07:08;14.20;;;6.18;;
31386;SDS011;69978;50.096;8.448;2024-02-28T01:09:34;16.38;;;6.25;;
31386;SDS011;69978;50.096;8.448;2024-02-28T01:12:00;16.95;;;6.57;;
31386;SDS011;69978;50.096;8.448;2024-02-28T01:14:25;14.38;;;5.63;;
31386;SDS011;69978;50.096;8.448;2024-02-28T01:16:51;17.35;;;6.32;;
31386;SDS011;69978;50.096;8.448;2024-02-28T01:19:16;15.90;;;6.30;;
31386;SDS011;69978;50.096;8.448;2024-02-28T01:21:42;17.75;;;7.15;;
31386;SDS011;69978;50.096;8.448;2024-02-28T01:24:07;18.63;;;7.22;;
31386;SDS011;69978;50.096;8.448;2024-02-28T01:26:33;19.10;;;6.85;;
31386;SDS011;69978;50.096;8.448;2024-02-28T01:28:59;19.00;;;7.35;;
31386;SDS011;69978;50.096;8.448;2024-02-28T01:31:24;20.33;;;7.90;;
31386;SDS011;69978;50.096;8.448;2024-02-28T01:33:50;21.17;;;7.75;;
31386;SDS011;69978;50.096;8.448;2024-02-28T01:36:15;20.75;;;7.88;;
31386;SDS011;69978;50.096;8.448;2024-02-28T01:38:41;21.00;;;7.93;;
31386;SDS011;69978;50.096;8.448;2024-02-28T01:41:07;21.10;;;8.48;;
31386;SDS011;69978;50.096;8.448;2024-02-28T01:43:33;25.95;;;9.18;;
31386;SDS011;69978;50.096;8.448;2024-02-28T01:45:59;23.73;;;8.68;;
31386;SDS011;69978;50.096;8.448;2024-02-28T01:48:28;23.90;;;8.60;;
31386;SDS011;69978;50.096;8.448;2024-02-28T01:50:54;25.33;;;8.80;;
31386;SDS011;69978;50.096;8.448;2024-02-28T01:53:20;23.50;;;8.90;;
31386;SDS011;69978;50.096;8.448;2024-02-28T01:55:47;23.58;;;9.40;;
31386;SDS011;69978;50.096;8.448;2024-02-28T01:58:12;24.10;;;9.32;;
31386;SDS011;69978;50.096;8.448;2024-02-28T02:00:38;24.67;;;9.13;;
31386;SDS011;69978;50.096;8.448;2024-02-28T02:03:05;29.02;;;10.40;;
31386;SDS011;69978;50.096;8.448;2024-02-28T02:05:30;27.17;;;10.18;;
31386;SDS011;69978;50.096;8.448;2024-02-28T02:07:59;26.67;;;10.75;;
31386;SDS011;69978;50.096;8.448;2024-02-28T02:10:26;29.63;;;10.85;;
31386;SDS011;69978;50.096;8.448;2024-02-28T02:12:52;27.52;;;10.30;;
31386;SDS011;69978;50.096;8.448;2024-02-28T02:15:18;33.38;;;11.75;;
31386;SDS011;69978;50.096;8.448;2024-02-28T02:17:43;33.50;;;11.93;;
31386;SDS011;69978;50.096;8.448;2024-02-28T02:20:09;35.40;;;12.75;;
31386;SDS011;69978;50.096;8.448;2024-02-28T02:22:40;33.47;;;11.73;;
31386;SDS011;69978;50.096;8.448;2024-02-28T02:25:06;32.65;;;11.55;;
31386;SDS011;69978;50.096;8.448;2024-02-28T02:27:32;33.33;;;11.32;;
31386;SDS011;69978;50.096;8.448;2024-02-28T02:29:57;35.25;;;11.55;;
31386;SDS011;69978;50.096;8.448;2024-02-28T02:32:23;32.05;;;10.93;;
31386;SDS011;69978;50.096;8.448;2024-02-28T02:34:49;33.15;;;11.27;;
31386;SDS011;69978;50.096;8.448;2024-02-28T02:37:15;35.78;;;11.52;;
31386;SDS011;69978;50.096;8.448;2024-02-28T02:39:40;28.88;;;10.23;;
31386;SDS011;69978;50.096;8.448;2024-02-28T02:42:06;27.70;;;10.38;;
31386;SDS011;69978;50.096;8.448;2024-02-28T02:44:32;31.35;;;11.27;;
31386;SDS011;69978;50.096;8.448;2024-02-28T02:46:58;30.48;;;10.85;;
31386;SDS011;69978;50.096;8.448;2024-02-28T02:49:24;34.75;;;12.18;;
31386;SDS011;69978;50.096;8.448;2024-02-28T02:51:50;29.70;;;11.50;;
31386;SDS011;69978;50.096;8.448;2024-02-28T02:54:15;29.40;;;10.52;;
31386;SDS011;69978;50.096;8.448;2024-02-28T02:56:41;32.00;;;10.55;;
31386;SDS011;69978;50.096;8.448;2024-02-28T02:59:08;27.55;;;10.35;;
31386;SDS011;69978;50.096;8.448;2024-02-28T03:01:34;34.15;;;11.30;;
31386;SDS011;69978;50.096;8.448;2024-02-28T03:04:00;34.13;;;11.18;;
31386;SDS011;69978;50.096;8.448;2024-02-28T03:06:25;28.02;;;10.55;;
31386;SDS011;69978;50.096;8.448;2024-02-28T03:08:51;29.83;;;11.35;;
31386;SDS011;69978;50.096;8.448;2024-02-28T03:11:17;30.20;;;10.88;;
31386;SDS011;69978;50.096;8.448;2024-02-28T03:13:42;28.83;;;10.55;;
31386;SDS011;69978;50.096;8.448;2024-02-28T03:16:08;34.75;;;11.45;;
31386;SDS011;69978;50.096;8.448;2024-02-28T03:18:33;30.70;;;10.65;;
31386;SDS011;69978;50.096;8.448;2024-02-28T03:20:59;30.70;;;10.32;;
31386;SDS011;69978;50.096;8.448;2024-02-28T03:23:24;32.08;;;11.00;;
31386;SDS011;69978;50.096;8.448;2024-02-28T03:25:50;34.17;;;11.77;;
31386;SDS011;69978;50.096;8.448;2024-02-28T03:28:16;30.77;;;10.23;;
31386;SDS011;69978;50.096;8.448;2024-02-28T03:30:42;33.40;;;10.80;;
31386;SDS011;69978;50.096;8.448;2024-02-28T03:33:07;28.65;;;10.65;;
31386;SDS011;69978;50.096;8.448;2024-02-28T03:35:33;29.17;;;10.27;;
31386;SDS011;69978;50.096;8.448;2024-02-28T03:37:58;29.98;;;9.98;;
31386;SDS011;69978;50.096;8.448;2024-02-28T03:40:24;29.05;;;10.32;;
31386;SDS011;69978;50.096;8.448;2024-02-28T03:42:49;30.63;;;9.65;;
31386;SDS011;69978;50.096;8.448;2024-02-28T03:45:15;29.48;;;10.60;;
31386;SDS011;69978;50.096;8.448;2024-02-28T03:47:41;27.33;;;10.05;;
31386;SDS011;69978;50.096;8.448;2024-02-28T03:50:06;27.45;;;10.00;;
31386;SDS011;69978;50.096;8.448;2024-02-28T03:52:32;31.75;;;10.48;;
31386;SDS011;69978;50.096;8.448;2024-02-28T03:54:58;28.88;;;10.25;;
31386;SDS011;69978;50.096;8.448;2024-02-28T03:57:23;29.85;;;10.45;;
31386;SDS011;69978;50.096;8.448;2024-02-28T03:59:49;32.00;;;10.10;;
31386;SDS011;69978;50.096;8.448;2024-02-28T04:02:14;27.58;;;9.20;;
31386;SDS011;69978;50.096;8.448;2024-02-28T04:04:40;27.90;;;9.73;;
31386;SDS011;69978;50.096;8.448;2024-02-28T04:07:05;32.78;;;9.82;;
31386;SDS011;69978;50.096;8.448;2024-02-28T04:09:31;28.23;;;9.75;;
31386;SDS011;69978;50.096;8.448;2024-02-28T04:11:56;29.65;;;9.65;;
31386;SDS011;69978;50.096;8.448;2024-02-28T04:14:22;33.95;;;10.07;;
31386;SDS011;69978;50.096;8.448;2024-02-28T04:16:48;32.30;;;10.07;;
31386;SDS011;69978;50.096;8.448;2024-02-28T04:19:15;30.80;;;10.27;;
31386;SDS011;69978;50.096;8.448;2024-02-28T04:21:41;29.27;;;9.43;;
31386;SDS011;69978;50.096;8.448;2024-02-28T04:24:07;30.02;;;10.18;;
31386;SDS011;69978;50.096;8.448;2024-02-28T04:26:33;35.58;;;10.13;;
31386;SDS011;69978;50.096;8.448;2024-02-28T04:28:59;31.40;;;9.98;;
31386;SDS011;69978;50.096;8.448;2024-02-28T04:31:26;32.30;;;10.25;;
31386;SDS011;69978;50.096;8.448;2024-02-28T04:33:52;31.20;;;9.73;;
31386;SDS011;69978;50.096;8.448;2024-02-28T04:36:17;32.78;;;10.63;;
31386;SDS011;69978;50.096;8.448;2024-02-28T04:38:43;36.00;;;10.63;;
31386;SDS011;69978;50.096;8.448;2024-02-28T04:41:08;35.78;;;10.55;;
31386;SDS011;69978;50.096;8.448;2024-02-28T04:43:34;31.42;;;10.50;;
31386;SDS011;69978;50.096;8.448;2024-02-28T04:46:00;33.28;;;10.50;;
31386;SDS011;69978;50.096;8.448;2024-02-28T04:48:27;33.63;;;10.85;;
31386;SDS011;69978;50.096;8.448;2024-02-28T04:50:53;30.48;;;9.90;;
31386;SDS011;69978;50.096;8.448;2024-02-28T04:53:19;30.30;;;9.90;;
31386;SDS011;69978;50.096;8.448;2024-02-28T04:55:44;33.55;;;10.20;;
31386;SDS011;69978;50.096;8.448;2024-02-28T04:58:10;28.65;;;9.85;;
31386;SDS011;69978;50.096;8.448;2024-02-28T05:00:35;30.60;;;9.75;;
31386;SDS011;69978;50.096;8.448;2024-02-28T05:03:01;30.38;;;9.65;;
31386;SDS011;69978;50.096;8.448;2024-02-28T05:05:26;30.52;;;9.85;;
31386;SDS011;69978;50.096;8.448;2024-02-28T05:07:52;32.28;;;9.25;;
31386;SDS011;69978;50.096;8.448;2024-02-28T05:10:17;32.15;;;10.60;;
31386;SDS011;69978;50.096;8.448;2024-02-28T05:12:43;30.52;;;9.57;;
31386;SDS011;69978;50.096;8.448;2024-02-28T05:15:08;30.67;;;9.77;;
31386;SDS011;69978;50.096;8.448;2024-02-28T05:17:34;28.63;;;10.00;;
31386;SDS011;69978;50.096;8.448;2024-02-28T05:20:00;31.88;;;10.23;;
31386;SDS011;69978;50.096;8.448;2024-02-28T05:22:25;32.15;;;10.15;;
31386;SDS011;69978;50.096;8.448;2024-02-28T05:24:51;32.10;;;10.25;;
31386;SDS011;69978;50.096;8.448;2024-02-28T05:27:17;29.95;;;9.27;;
31386;SDS011;69978;50.096;8.448;2024-02-28T05:29:42;33.22;;;10.43;;
31386;SDS011;69978;50.096;8.448;2024-02-28T05:32:08;32.58;;;10.30;;
31386;SDS011;69978;50.096;8.448;2024-02-28T05:34:34;33.47;;;10.15;;
31386;SDS011;69978;50.096;8.448;2024-02-28T05:37:00;34.42;;;10.60;;
31386;SDS011;69978;50.096;8.448;2024-02-28T05:39:26;35.97;;;11.07;;
31386;SDS011;69978;50.096;8.448;2024-02-28T05:41:54;27.73;;;9.18;;
31386;SDS011;69978;50.096;8.448;2024-02-28T05:44:20;30.48;;;9.35;;
31386;SDS011;69978;50.096;8.448;2024-02-28T05:46:45;27.95;;;9.20;;
31386;SDS011;69978;50.096;8.448;2024-02-28T05:49:11;30.08;;;9.35;;
31386;SDS011;69978;50.096;8.448;2024-02-28T05:51:36;32.55;;;9.32;;
31386;SDS011;69978;50.096;8.448;2024-02-28T05:54:02;32.55;;;10.00;;
31386;SDS011;69978;50.096;8.448;2024-02-28T05:56:28;28.95;;;9.18;;
31386;SDS011;69978;50.096;8.448;2024-02-28T05:58:55;34.58;;;10.13;;
31386;SDS011;69978;50.096;8.448;2024-02-28T06:01:20;33.88;;;9.77;;
31386;SDS011;69978;50.096;8.448;2024-02-28T06:03:47;29.25;;;9.68;;
31386;SDS011;69978;50.096;8.448;2024-02-28T06:06:13;29.00;;;9.10;;
31386;SDS011;69978;50.096;8.448;2024-02-28T06:08:39;29.70;;;9.13;;
31386;SDS011;69978;50.096;8.448;2024-02-28T06:11:05;33.00;;;10.20;;
31386;SDS011;69978;50.096;8.448;2024-02-28T06:13:31;32.00;;;9.45;;
31386;SDS011;69978;50.096;8.448;2024-02-28T06:15:57;32.35;;;8.75;;
31386;SDS011;69978;50.096;8.448;2024-02-28T06:18:24;30.60;;;9.35;;
31386;SDS011;69978;50.096;8.448;2024-02-28T06:20:55;32.00;;;9.32;;
31386;SDS011;69978;50.096;8.448;2024-02-28T06:23:21;31.75;;;8.57;;
31386;SDS011;69978;50.096;8.448;2024-02-28T06:25:47;22.65;;;8.20;;
31386;SDS011;69978;50.096;8.448;2024-02-28T06:28:13;29.27;;;8.80;;
31386;SDS011;69978;50.096;8.448;2024-02-28T06:30:39;27.08;;;8.73;;
31386;SDS011;69978;50.096;8.448;2024-02-28T06:33:05;25.98;;;8.35;;
31386;SDS011;69978;50.096;8.448;2024-02-28T06:35:31;29.13;;;9.05;;
31386;SDS011;69978;50.096;8.448;2024-02-28T06:37:56;28.48;;;9.30;;
31386;SDS011;69978;50.096;8.448;2024-02-28T06:40:24;29.05;;;8.82;;
31386;SDS011;69978;50.096;8.448;2024-02-28T06:42:49;28.60;;;8.82;;
31386;SDS011;69978;50.096;8.448;2024-02-28T06:45:15;24.63;;;8.07;;
31386;SDS011;69978;50.096;8.448;2024-02-28T06:47:41;25.35;;;8.07;;
31386;SDS011;69978;50.096;8.448;2024-02-28T06:50:06;29.80;;;9.07;;
31386;SDS011;69978;50.096;8.448;2024-02-28T06:52:33;30.27;;;8.90;;
31386;SDS011;69978;50.096;8.448;2024-02-28T06:54:59;27.88;;;8.57;;
31386;SDS011;69978;50.096;8.448;2024-02-28T06:57:28;29.60;;;8.60;;
31386;SDS011;69978;50.096;8.448;2024-02-28T06:59:54;26.95;;;7.97;;
31386;SDS011;69978;50.096;8.448;2024-02-28T07:02:19;29.98;;;8.75;;
31386;SDS011;69978;50.096;8.448;2024-02-28T07:04:45;29.95;;;8.73;;
31386;SDS011;69978;50.096;8.448;2024-02-28T07:07:10;27.15;;;8.00;;
31386;SDS011;69978;50.096;8.448;2024-02-28T07:09:37;29.23;;;9.63;;
31386;SDS011;69978;50.096;8.448;2024-02-28T07:12:03;25.10;;;8.02;;
31386;SDS011;69978;50.096;8.448;2024-02-28T07:14:29;30.52;;;8.75;;
31386;SDS011;69978;50.096;8.448;2024-02-28T07:16:54;28.27;;;8.57;;
31386;SDS011;69978;50.096;8.448;2024-02-28T07:19:20;27.58;;;8.95;;
31386;SDS011;69978;50.096;8.448;2024-02-28T07:21:46;25.73;;;8.63;;
31386;SDS011;69978;50.096;8.448;2024-02-28T07:24:11;23.77;;;7.90;;
31386;SDS011;69978;50.096;8.448;2024-02-28T07:26:37;27.23;;;9.07;;
31386;SDS011;69978;50.096;8.448;2024-02-28T07:29:04;28.83;;;8.45;;
31386;SDS011;69978;50.096;8.448;2024-02-28T07:31:30;28.25;;;8.75;;
31386;SDS011;69978;50.096;8.448;2024-02-28T07:33:56;28.00;;;8.23;;
31386;SDS011;69978;50.096;8.448;2024-02-28T07:36:21;26.13;;;8.45;;
31386;SDS011;69978;50.096;8.448;2024-02-28T07:38:47;31.77;;;9.23;;
31386;SDS011;69978;50.096;8.448;2024-02-28T07:41:13;33.10;;;9.73;;
31386;SDS011;69978;50.096;8.448;2024-02-28T07:43:42;31.15;;;9.98;;
31386;SDS011;69978;50.096;8.448;2024-02-28T07:46:08;36.33;;;10.52;;
31386;SDS011;69978;50.096;8.448;2024-02-28T07:48:35;30.35;;;10.73;;
31386;SDS011;69978;50.096;8.448;2024-02-28T07:51:04;33.15;;;10.40;;
31386;SDS011;69978;50.096;8.448;2024-02-28T07:53:30;34.10;;;10.50;;
31386;SDS011;69978;50.096;8.448;2024-02-28T07:55:56;31.80;;;10.32;;
31386;SDS011;69978;50.096;8.448;2024-02-28T07:58:21;29.48;;;9.27;;
31386;SDS011;69978;50.096;8.448;2024-02-28T08:00:47;33.65;;;10.43;;
31386;SDS011;69978;50.096;8.448;2024-02-28T08:03:12;30.55;;;9.65;;
31386;SDS011;69978;50.096;8.448;2024-02-28T08:05:38;29.88;;;9.82;;
31386;SDS011;69978;50.096;8.448;2024-02-28T08:08:07;29.38;;;9.45;;
31386;SDS011;69978;50.096;8.448;2024-02-28T08:10:33;27.70;;;8.88;;
31386;SDS011;69978;50.096;8.448;2024-02-28T08:13:00;28.30;;;8.38;;
31386;SDS011;69978;50.096;8.448;2024-02-28T08:15:26;26.75;;;7.50;;
31386;SDS011;69978;50.096;8.448;2024-02-28T08:17:52;27.52;;;8.27;;
31386;SDS011;69978;50.096;8.448;2024-02-28T08:20:18;28.88;;;8.93;;
31386;SDS011;69978;50.096;8.448;2024-02-28T08:22:44;28.15;;;8.70;;
31386;SDS011;69978;50.096;8.448;2024-02-28T08:25:09;27.10;;;8.60;;
31386;SDS011;69978;50.096;8.448;2024-02-28T08:27:36;26.15;;;8.77;;
31386;SDS011;69978;50.096;8.448;2024-02-28T08:30:04;29.50;;;8.75;;
31386;SDS011;69978;50.096;8.448;2024-02-28T08:32:33;28.48;;;8.98;;
31386;SDS011;69978;50.096;8.448;2024-02-28T08:34:59;30.20;;;8.98;;
31386;SDS011;69978;50.096;8.448;2024-02-28T08:37:25;28.52;;;9.57;;
31386;SDS011;69978;50.096;8.448;2024-02-28T08:39:53;29.10;;;9.15;;
31386;SDS011;69978;50.096;8.448;2024-02-28T08:42:22;28.30;;;9.15;;
31386;SDS011;69978;50.096;8.448;2024-02-28T08:44:51;29.38;;;9.07;;
31386;SDS011;69978;50.096;8.448;2024-02-28T08:47:22;36.78;;;9.00;;
31386;SDS011;69978;50.096;8.448;2024-02-28T08:49:48;29.00;;;9.10;;
31386;SDS011;69978;50.096;8.448;2024-02-28T08:52:14;28.42;;;9.23;;
31386;SDS011;69978;50.096;8.448;2024-02-28T08:54:39;27.70;;;9.00;;
31386;SDS011;69978;50.096;8.448;2024-02-28T08:57:05;26.38;;;8.85;;
31386;SDS011;69978;50.096;8.448;2024-02-28T08:59:30;25.63;;;8.40;;
31386;SDS011;69978;50.096;8.448;2024-02-28T09:01:56;26.85;;;8.82;;
31386;SDS011;69978;50.096;8.448;2024-02-28T09:04:21;21.52;;;8.00;;
31386;SDS011;69978;50.096;8.448;2024-02-28T09:06:47;23.23;;;8.57;;
31386;SDS011;69978;50.096;8.448;2024-02-28T09:09:12;25.27;;;8.38;;
31386;SDS011;69978;50.096;8.448;2024-02-28T09:11:39;23.45;;;7.95;;
31386;SDS011;69978;50.096;8.448;2024-02-28T09:14:04;22.92;;;8.00;;
31386;SDS011;69978;50.096;8.448;2024-02-28T09:16:30;21.52;;;8.23;;
31386;SDS011;69978;50.096;8.448;2024-02-28T09:18:55;23.73;;;8.43;;
31386;SDS011;69978;50.096;8.448;2024-02-28T09:21:21;20.35;;;8.00;;
31386;SDS011;69978;50.096;8.448;2024-02-28T09:23:47;21.08;;;7.60;;
31386;SDS011;69978;50.096;8.448;2024-02-28T09:26:12;21.30;;;7.97;;
31386;SDS011;69978;50.096;8.448;2024-02-28T09:28:38;23.50;;;8.63;;
31386;SDS011;69978;50.096;8.448;2024-02-28T09:31:03;21.20;;;7.80;;
31386;SDS011;69978;50.096;8.448;2024-02-28T09:33:29;20.17;;;7.93;;
31386;SDS011;69978;50.096;8.448;2024-02-28T09:35:55;21.95;;;7.97;;
31386;SDS011;69978;50.096;8.448;2024-02-28T09:38:20;20.25;;;7.68;;
31386;SDS011;69978;50.096;8.448;2024-02-28T09:40:46;18.10;;;7.10;;
31386;SDS011;69978;50.096;8.448;2024-02-28T09:43:15;20.67;;;7.40;;
31386;SDS011;69978;50.096;8.448;2024-02-28T09:45:54;22.10;;;6.60;;
31386;SDS011;69978;50.096;8.448;2024-02-28T09:48:26;15.25;;;6.47;;
31386;SDS011;69978;50.096;8.448;2024-02-28T09:50:58;20.70;;;7.63;;
31386;SDS011;69978;50.096;8.448;2024-02-28T09:53:25;18.17;;;6.88;;
31386;SDS011;69978;50.096;8.448;2024-02-28T09:55:51;17.67;;;7.18;;
31386;SDS011;69978;50.096;8.448;2024-02-28T09:58:17;18.38;;;7.05;;
31386;SDS011;69978;50.096;8.448;2024-02-28T10:00:46;15.38;;;7.10;;
31386;SDS011;69978;50.096;8.448;2024-02-28T10:03:13;15.93;;;6.75;;
31386;SDS011;69978;50.096;8.448;2024-02-28T10:05:41;17.90;;;7.00;;
31386;SDS011;69978;50.096;8.448;2024-02-28T10:08:07;18.00;;;7.05;;
31386;SDS011;69978;50.096;8.448;2024-02-28T10:10:36;16.77;;;6.40;;
31386;SDS011;69978;50.096;8.448;2024-02-28T10:13:03;16.60;;;6.78;;
31386;SDS011;69978;50.096;8.448;2024-02-28T10:15:29;13.68;;;5.95;;
31386;SDS011;69978;50.096;8.448;2024-02-28T10:17:55;16.80;;;6.20;;
31386;SDS011;69978;50.096;8.448;2024-02-28T10:20:21;15.90;;;6.05;;
31386;SDS011;69978;50.096;8.448;2024-02-28T10:22:47;15.02;;;5.95;;
31386;SDS011;69978;50.096;8.448;2024-02-28T10:25:13;12.23;;;5.85;;
31386;SDS011;69978;50.096;8.448;2024-02-28T10:27:39;14.50;;;6.22;;
31386;SDS011;69978;50.096;8.448;2024-02-28T10:30:06;16.83;;;6.43;;
31386;SDS011;69978;50.096;8.448;2024-02-28T10:32:32;17.92;;;7.15;;
31386;SDS011;69978;50.096;8.448;2024-02-28T10:35:03;17.35;;;7.63;;
31386;SDS011;69978;50.096;8.448;2024-02-28T10:37:32;17.55;;;7.22;;
31386;SDS011;69978;50.096;8.448;2024-02-28T10:40:03;18.13;;;7.85;;
31386;SDS011;69978;50.096;8.448;2024-02-28T10:42:30;17.75;;;8.15;;
31386;SDS011;69978;50.096;8.448;2024-02-28T10:44:57;15.75;;;7.38;;
31386;SDS011;69978;50.096;8.448;2024-02-28T10:47:24;20.08;;;8.90;;
31386;SDS011;69978;50.096;8.448;2024-02-28T10:49:50;20.77;;;8.60;;
31386;SDS011;69978;50.096;8.448;2024-02-28T10:52:16;18.35;;;8.63;;
31386;SDS011;69978;50.096;8.448;2024-02-28T10:54:46;19.02;;;8.75;;
31386;SDS011;69978;50.096;8.448;2024-02-28T10:57:18;23.40;;;8.63;;
31386;SDS011;69978;50.096;8.448;2024-02-28T10:59:45;19.40;;;7.72;;
31386;SDS011;69978;50.096;8.448;2024-02-28T11:02:11;20.50;;;8.75;;
31386;SDS011;69978;50.096;8.448;2024-02-28T11:04:37;18.83;;;8.68;;
31386;SDS011;69978;50.096;8.448;2024-02-28T11:07:03;16.33;;;7.85;;
31386;SDS011;69978;50.096;8.448;2024-02-28T11:09:30;25.00;;;9.23;;
31386;SDS011;69978;50.096;8.448;2024-02-28T11:11:57;17.83;;;8.65;;
31386;SDS011;69978;50.096;8.448;2024-02-28T11:14:23;19.92;;;8.57;;
31386;SDS011;69978;50.096;8.448;2024-02-28T11:17:01;17.52;;;8.30;;
31386;SDS011;69978;50.096;8.448;2024-02-28T11:19:31;18.92;;;9.00;;
31386;SDS011;69978;50.096;8.448;2024-02-28T11:22:01;19.48;;;8.70;;
31386;SDS011;69978;50.096;8.448;2024-02-28T11:24:32;20.85;;;8.98;;
31386;SDS011;69978;50.096;8.448;2024-02-28T11:26:59;21.75;;;9.25;;
31386;SDS011;69978;50.096;8.448;2024-02-28T11:29:25;18.63;;;8.82;;
31386;SDS011;69978;50.096;8.448;2024-02-28T11:31:53;17.35;;;8.48;;
31386;SDS011;69978;50.096;8.448;2024-02-28T11:34:19;18.83;;;8.95;;
31386;SDS011;69978;50.096;8.448;2024-02-28T11:36:49;19.50;;;8.48;;
31386;SDS011;69978;50.096;8.448;2024-02-28T11:39:16;18.27;;;8.98;;
31386;SDS011;69978;50.096;8.448;2024-02-28T11:41:42;17.92;;;8.48;;
31386;SDS011;69978;50.096;8.448;2024-02-28T11:44:11;20.05;;;8.68;;
31386;SDS011;69978;50.096;8.448;2024-02-28T11:46:38;18.17;;;8.60;;
31386;SDS011;69978;50.096;8.448;2024-02-28T11:49:07;18.65;;;8.30;;
31386;SDS011;69978;50.096;8.448;2024-02-28T11:51:33;16.30;;;8.25;;
31386;SDS011;69978;50.096;8.448;2024-02-28T11:54:00;17.48;;;8.30;;
31386;SDS011;69978;50.096;8.448;2024-02-28T11:56:26;18.00;;;8.82;;
31386;SDS011;69978;50.096;8.448;2024-02-28T11:58:52;17.77;;;7.90;;
31386;SDS011;69978;50.096;8.448;2024-02-28T12:01:40;19.58;;;8.82;;
31386;SDS011;69978;50.096;8.448;2024-02-28T12:04:12;18.67;;;8.80;;
31386;SDS011;69978;50.096;8.448;2024-02-28T12:06:38;16.27;;;8.05;;
31386;SDS011;69978;50.096;8.448;2024-02-28T12:09:07;19.10;;;8.07;;
31386;SDS011;69978;50.096;8.448;2024-02-28T12:11:34;16.42;;;8.23;;
31386;SDS011;69978;50.096;8.448;2024-02-28T12:14:04;17.70;;;8.00;;
31386;SDS011;69978;50.096;8.448;2024-02-28T12:16:34;15.52;;;7.60;;
31386;SDS011;69978;50.096;8.448;2024-02-28T12:19:02;14.70;;;7.68;;
31386;SDS011;69978;50.096;8.448;2024-02-28T12:21:29;16.50;;;7.47;;
31386;SDS011;69978;50.096;8.448;2024-02-28T12:23:56;18.05;;;8.35;;
31386;SDS011;69978;50.096;8.448;2024-02-28T12:26:22;18.38;;;8.25;;
31386;SDS011;69978;50.096;8.448;2024-02-28T12:28:47;18.98;;;8.25;;
31386;SDS011;69978;50.096;8.448;2024-02-28T12:31:14;16.42;;;7.43;;
31386;SDS011;69978;50.096;8.448;2024-02-28T12:33:40;17.70;;;7.88;;
31386;SDS011;69978;50.096;8.448;2024-02-28T12:36:07;18.33;;;8.45;;
31386;SDS011;69978;50.096;8.448;2024-02-28T12:38:33;17.08;;;7.80;;
31386;SDS011;69978;50.096;8.448;2024-02-28T12:40:58;14.82;;;7.22;;
31386;SDS011;69978;50.096;8.448;2024-02-28T12:43:24;24.80;;;8.38;;
31386;SDS011;69978;50.096;8.448;2024-02-28T12:45:52;16.08;;;7.07;;
31386;SDS011;69978;50.096;8.448;2024-02-28T12:48:18;15.48;;;7.57;;
31386;SDS011;69978;50.096;8.448;2024-02-28T12:50:43;16.90;;;8.00;;
31386;SDS011;69978;50.096;8.448;2024-02-28T12:53:09;15.80;;;7.25;;
31386;SDS011;69978;50.096;8.448;2024-02-28T12:55:34;16.77;;;7.28;;
31386;SDS011;69978;50.096;8.448;2024-02-28T12:58:00;15.57;;;6.88;;
31386;SDS011;69978;50.096;8.448;2024-02-28T13:00:29;14.18;;;6.97;;
31386;SDS011;69978;50.096;8.448;2024-02-28T13:02:55;17.85;;;7.22;;
31386;SDS011;69978;50.096;8.448;2024-02-28T13:05:20;12.63;;;6.43;;
31386;SDS011;69978;50.096;8.448;2024-02-28T13:07:46;12.65;;;6.03;;
31386;SDS011;69978;50.096;8.448;2024-02-28T13:10:11;12.05;;;6.03;;
31386;SDS011;69978;50.096;8.448;2024-02-28T13:12:37;14.00;;;6.18;;
31386;SDS011;69978;50.096;8.448;2024-02-28T13:15:04;14.55;;;6.22;;
31386;SDS011;69978;50.096;8.448;2024-02-28T13:17:30;15.60;;;6.38;;
31386;SDS011;69978;50.096;8.448;2024-02-28T13:19:56;14.35;;;6.65;;
31386;SDS011;69978;50.096;8.448;2024-02-28T13:22:21;12.90;;;6.15;;
31386;SDS011;69978;50.096;8.448;2024-02-28T13:24:47;8.55;;;4.63;;
31386;SDS011;69978;50.096;8.448;2024-02-28T13:27:12;10.27;;;4.82;;
31386;SDS011;69978;50.096;8.448;2024-02-28T13:29:38;11.00;;;5.38;;
31386;SDS011;69978;50.096;8.448;2024-02-28T13:32:04;15.75;;;6.13;;
31386;SDS011;69978;50.096;8.448;2024-02-28T13:34:30;13.25;;;5.70;;
31386;SDS011;69978;50.096;8.448;2024-02-28T13:36:57;11.43;;;4.90;;
31386;SDS011;69978;50.096;8.448;2024-02-28T13:39:22;11.95;;;5.60;;
31386;SDS011;69978;50.096;8.448;2024-02-28T13:41:49;10.80;;;4.90;;
31386;SDS011;69978;50.096;8.448;2024-02-28T13:44:16;11.73;;;5.22;;
31386;SDS011;69978;50.096;8.448;2024-02-28T13:46:43;11.32;;;5.07;;
31386;SDS011;69978;50.096;8.448;2024-02-28T13:49:09;11.23;;;4.95;;
31386;SDS011;69978;50.096;8.448;2024-02-28T13:51:34;11.85;;;5.32;;
31386;SDS011;69978;50.096;8.448;2024-02-28T13:54:00;10.50;;;4.88;;
31386;SDS011;69978;50.096;8.448;2024-02-28T13:56:25;12.63;;;5.53;;
31386;SDS011;69978;50.096;8.448;2024-02-28T13:58:51;14.20;;;5.78;;
31386;SDS011;69978;50.096;8.448;2024-02-28T14:01:17;9.52;;;4.40;;
31386;SDS011;69978;50.096;8.448;2024-02-28T14:03:44;10.43;;;4.57;;
31386;SDS011;69978;50.096;8.448;2024-02-28T14:06:09;12.65;;;5.28;;
31386;SDS011;69978;50.096;8.448;2024-02-28T14:08:35;13.65;;;6.00;;
31386;SDS011;69978;50.096;8.448;2024-02-28T14:11:01;14.02;;;6.22;;
31386;SDS011;69978;50.096;8.448;2024-02-28T14:13:27;12.35;;;5.30;;
31386;SDS011;69978;50.096;8.448;2024-02-28T14:15:52;15.13;;;6.70;;
31386;SDS011;69978;50.096;8.448;2024-02-28T14:18:19;17.38;;;6.40;;
31386;SDS011;69978;50.096;8.448;2024-02-28T14:20:45;16.90;;;6.30;;
31386;SDS011;69978;50.096;8.448;2024-02-28T14:23:10;15.27;;;5.82;;
31386;SDS011;69978;50.096;8.448;2024-02-28T14:25:36;15.02;;;6.63;;